sensor_id;sensor_type;location;lat;lon;timestamp;pressure;altitude;pressure_sealevel;temperature;humidity
10366;BME280;5229;41.820;23.490;2023-02-16T00:00:15;90959.63;;;2.41;54.15
10366;BME280;5229;41.820;23.490;2023-02-16T00:02:44;90960.47;;;2.47;53.90
10366;BME280;5229;41.820;23.490;2023-02-16T00:05:21;90957.34;;;2.45;54.08
10366;BME280;5229;41.820;23.490;2023-02-16T00:07:50;90960.69;;;2.45;53.67
10366;BME280;5229;41.820;23.490;2023-02-16T00:10:17;90965.03;;;2.45;53.77
10366;BME280;5229;41.820;23.490;2023-02-16T00:12:45;90964.50;;;2.43;54.19
10366;BME280;5229;41.820;23.490;2023-02-16T00:15:30;90965.50;;;2.42;54.54
10366;BME280;5229;41.820;23.490;2023-02-16T00:17:58;90963.66;;;2.37;54.49
10366;BME280;5229;41.820;23.490;2023-02-16T00:20:28;90974.34;;;2.34;53.95
10366;BME280;5229;41.820;23.490;2023-02-16T00:22:55;90968.13;;;2.30;54.45
10366;BME280;5229;41.820;23.490;2023-02-16T00:25:22;90973.72;;;2.27;54.40
10366;BME280;5229;41.820;23.490;2023-02-16T00:27:50;90971.84;;;2.23;54.04
10366;BME280;5229;41.820;23.490;2023-02-16T00:30:20;90969.19;;;2.18;54.55
10366;BME280;5229;41.820;23.490;2023-02-16T00:32:47;90962.22;;;2.13;54.53
10366;BME280;5229;41.820;23.490;2023-02-16T00:35:14;90959.88;;;2.12;54.72
10366;BME280;5229;41.820;23.490;2023-02-16T00:37:41;90958.00;;;2.07;54.74
10366;BME280;5229;41.820;23.490;2023-02-16T00:40:09;90954.13;;;2.05;54.36
10366;BME280;5229;41.820;23.490;2023-02-16T00:42:36;90965.03;;;2.00;54.68
10366;BME280;5229;41.820;23.490;2023-02-16T00:45:05;90962.94;;;1.97;54.91
10366;BME280;5229;41.820;23.490;2023-02-16T00:47:41;90959.84;;;1.95;55.10
10366;BME280;5229;41.820;23.490;2023-02-16T00:50:14;90964.72;;;1.97;55.17
10366;BME280;5229;41.820;23.490;2023-02-16T00:52:42;90956.06;;;1.98;55.08
10366;BME280;5229;41.820;23.490;2023-02-16T00:55:12;90947.38;;;1.99;55.31
10366;BME280;5229;41.820;23.490;2023-02-16T00:57:41;90947.94;;;2.01;55.05
10366;BME280;5229;41.820;23.490;2023-02-16T01:00:17;90952.59;;;2.04;55.45
10366;BME280;5229;41.820;23.490;2023-02-16T01:02:48;90947.94;;;2.01;55.08
10366;BME280;5229;41.820;23.490;2023-02-16T01:05:16;90959.41;;;1.98;55.55
10366;BME280;5229;41.820;23.490;2023-02-16T01:07:42;90951.16;;;1.96;55.29
10366;BME280;5229;41.820;23.490;2023-02-16T01:10:38;90955.34;;;1.86;55.38
10366;BME280;5229;41.820;23.490;2023-02-16T01:13:38;90951.88;;;1.80;55.58
10366;BME280;5229;41.820;23.490;2023-02-16T01:16:14;90942.66;;;1.79;55.80
10366;BME280;5229;41.820;23.490;2023-02-16T01:18:42;90949.25;;;1.75;55.29
10366;BME280;5229;41.820;23.490;2023-02-16T01:21:09;90951.00;;;1.75;55.57
10366;BME280;5229;41.820;23.490;2023-02-16T01:23:36;90948.94;;;1.72;55.95
10366;BME280;5229;41.820;23.490;2023-02-16T01:26:03;90940.41;;;1.66;56.07
10366;BME280;5229;41.820;23.490;2023-02-16T01:28:33;90945.50;;;1.66;56.09
10366;BME280;5229;41.820;23.490;2023-02-16T01:31:01;90945.75;;;1.65;56.19
10366;BME280;5229;41.820;23.490;2023-02-16T01:33:29;90945.19;;;1.63;55.69
10366;BME280;5229;41.820;23.490;2023-02-16T01:35:56;90933.31;;;1.57;55.80
10366;BME280;5229;41.820;23.490;2023-02-16T01:38:25;90935.31;;;1.55;56.18
10366;BME280;5229;41.820;23.490;2023-02-16T01:40:59;90912.44;;;1.48;56.11
10366;BME280;5229;41.820;23.490;2023-02-16T01:43:34;90924.53;;;1.53;56.40
10366;BME280;5229;41.820;23.490;2023-02-16T01:46:07;90923.53;;;1.54;56.22
10366;BME280;5229;41.820;23.490;2023-02-16T01:48:39;90930.22;;;1.55;55.90
10366;BME280;5229;41.820;23.490;2023-02-16T01:51:19;90931.66;;;1.51;56.05
10366;BME280;5229;41.820;23.490;2023-02-16T01:53:50;90928.00;;;1.47;56.05
10366;BME280;5229;41.820;23.490;2023-02-16T01:56:25;90931.03;;;1.44;55.81
10366;BME280;5229;41.820;23.490;2023-02-16T01:58:55;90924.91;;;1.45;56.19
10366;BME280;5229;41.820;23.490;2023-02-16T02:01:41;90927.13;;;1.41;56.28
10366;BME280;5229;41.820;23.490;2023-02-16T02:04:19;90927.13;;;1.41;56.35
10366;BME280;5229;41.820;23.490;2023-02-16T02:07:05;90928.47;;;1.44;56.59
10366;BME280;5229;41.820;23.490;2023-02-16T02:09:36;90917.56;;;1.48;56.79
10366;BME280;5229;41.820;23.490;2023-02-16T02:12:13;90921.22;;;1.52;56.56
10366;BME280;5229;41.820;23.490;2023-02-16T02:14:44;90921.97;;;1.53;56.50
10366;BME280;5229;41.820;23.490;2023-02-16T02:17:15;90915.34;;;1.52;56.76
10366;BME280;5229;41.820;23.490;2023-02-16T02:19:50;90913.00;;;1.50;56.85
10366;BME280;5229;41.820;23.490;2023-02-16T02:29:23;90910.03;;;1.42;56.91
10366;BME280;5229;41.820;23.490;2023-02-16T02:31:58;90907.47;;;1.42;56.37
10366;BME280;5229;41.820;23.490;2023-02-16T02:34:33;90908.38;;;1.36;57.09
10366;BME280;5229;41.820;23.490;2023-02-16T02:37:09;90903.97;;;1.31;56.71
10366;BME280;5229;41.820;23.490;2023-02-16T02:39:47;90902.63;;;1.29;56.96
10366;BME280;5229;41.820;23.490;2023-02-16T02:42:22;90900.06;;;1.29;56.83
10366;BME280;5229;41.820;23.490;2023-02-16T02:44:55;90901.84;;;1.28;56.88
10366;BME280;5229;41.820;23.490;2023-02-16T02:47:22;90907.06;;;1.22;56.92
10366;BME280;5229;41.820;23.490;2023-02-16T02:50:01;90894.66;;;1.14;57.12
10366;BME280;5229;41.820;23.490;2023-02-16T02:52:28;90894.88;;;1.12;57.25
10366;BME280;5229;41.820;23.490;2023-02-16T02:54:55;90893.13;;;1.13;57.13
10366;BME280;5229;41.820;23.490;2023-02-16T02:57:41;90900.56;;;1.14;57.57
10366;BME280;5229;41.820;23.490;2023-02-16T03:00:30;90894.66;;;1.14;57.29
10366;BME280;5229;41.820;23.490;2023-02-16T03:03:11;90894.66;;;1.14;57.29
10366;BME280;5229;41.820;23.490;2023-02-16T03:05:42;90896.22;;;1.15;57.19
10366;BME280;5229;41.820;23.490;2023-02-16T03:08:13;90893.13;;;1.13;57.60
10366;BME280;5229;41.820;23.490;2023-02-16T03:10:42;90890.00;;;1.11;57.18
10366;BME280;5229;41.820;23.490;2023-02-16T03:13:45;90892.91;;;1.03;57.15
10366;BME280;5229;41.820;23.490;2023-02-16T03:16:18;90888.25;;;1.00;57.20
10366;BME280;5229;41.820;23.490;2023-02-16T03:18:46;90890.06;;;0.99;57.62
10366;BME280;5229;41.820;23.490;2023-02-16T03:21:31;90893.34;;;1.00;57.40
10366;BME280;5229;41.820;23.490;2023-02-16T03:24:20;90889.72;;;0.96;57.11
10366;BME280;5229;41.820;23.490;2023-02-16T03:27:07;90890.59;;;0.90;57.70
10366;BME280;5229;41.820;23.490;2023-02-16T03:29:52;90891.81;;;0.87;57.46
10366;BME280;5229;41.820;23.490;2023-02-16T03:32:22;90892.63;;;0.88;57.59
10366;BME280;5229;41.820;23.490;2023-02-16T03:34:48;90883.72;;;0.90;57.06
10366;BME280;5229;41.820;23.490;2023-02-16T03:37:15;90884.72;;;0.89;57.47
10366;BME280;5229;41.820;23.490;2023-02-16T03:39:42;90883.94;;;0.89;57.38
10366;BME280;5229;41.820;23.490;2023-02-16T03:42:26;90879.50;;;0.84;57.49
10366;BME280;5229;41.820;23.490;2023-02-16T03:44:53;90892.28;;;0.84;56.76
10366;BME280;5229;41.820;23.490;2023-02-16T03:47:21;90879.84;;;0.88;57.59
10366;BME280;5229;41.820;23.490;2023-02-16T03:49:48;90878.84;;;0.89;57.58
10366;BME280;5229;41.820;23.490;2023-02-16T03:52:15;90890.94;;;0.93;57.28
10366;BME280;5229;41.820;23.490;2023-02-16T03:54:42;90887.59;;;0.93;57.32
10366;BME280;5229;41.820;23.490;2023-02-16T03:57:08;90875.84;;;0.92;57.42
10366;BME280;5229;41.820;23.490;2023-02-16T03:59:35;90880.94;;;0.92;57.41
10366;BME280;5229;41.820;23.490;2023-02-16T04:02:02;90878.41;;;0.92;57.43
10366;BME280;5229;41.820;23.490;2023-02-16T04:04:30;90884.28;;;0.92;57.44
10366;BME280;5229;41.820;23.490;2023-02-16T04:06:56;90876.28;;;0.89;57.46
10366;BME280;5229;41.820;23.490;2023-02-16T04:09:23;90881.84;;;0.86;57.43
10366;BME280;5229;41.820;23.490;2023-02-16T04:11:50;90888.84;;;0.79;57.80
10366;BME280;5229;41.820;23.490;2023-02-16T04:14:34;90883.66;;;0.74;57.56
10366;BME280;5229;41.820;23.490;2023-02-16T04:17:01;90892.31;;;0.73;57.58
10366;BME280;5229;41.820;23.490;2023-02-16T04:19:29;90888.84;;;0.67;57.63
10366;BME280;5229;41.820;23.490;2023-02-16T04:21:56;90892.41;;;0.66;57.66
10366;BME280;5229;41.820;23.490;2023-02-16T04:24:23;90888.53;;;0.64;57.48
10366;BME280;5229;41.820;23.490;2023-02-16T04:26:49;90887.75;;;0.63;57.75
10366;BME280;5229;41.820;23.490;2023-02-16T04:29:16;90888.09;;;0.67;57.41
10366;BME280;5229;41.820;23.490;2023-02-16T04:31:43;90888.63;;;0.69;57.55
10366;BME280;5229;41.820;23.490;2023-02-16T04:34:10;90889.19;;;0.71;57.32
10366;BME280;5229;41.820;23.490;2023-02-16T04:36:38;90883.28;;;0.70;57.48
10366;BME280;5229;41.820;23.490;2023-02-16T04:39:05;90892.41;;;0.66;57.78
10366;BME280;5229;41.820;23.490;2023-02-16T04:41:32;90890.84;;;0.65;57.62
10366;BME280;5229;41.820;23.490;2023-02-16T04:43:58;90890.84;;;0.65;57.67
10366;BME280;5229;41.820;23.490;2023-02-16T04:46:25;90893.63;;;0.64;57.62
10366;BME280;5229;41.820;23.490;2023-02-16T04:48:52;90899.28;;;0.66;57.28
10366;BME280;5229;41.820;23.490;2023-02-16T04:51:18;90896.75;;;0.66;57.50
10366;BME280;5229;41.820;23.490;2023-02-16T04:53:47;90905.81;;;0.62;57.54
10366;BME280;5229;41.820;23.490;2023-02-16T04:56:13;90895.28;;;0.58;57.62
10366;BME280;5229;41.820;23.490;2023-02-16T04:58:40;90899.63;;;0.58;57.52
10366;BME280;5229;41.820;23.490;2023-02-16T05:01:07;90907.25;;;0.58;57.12
10366;BME280;5229;41.820;23.490;2023-02-16T05:03:34;90905.16;;;0.55;57.32
10366;BME280;5229;41.820;23.490;2023-02-16T05:06:01;90897.41;;;0.50;57.44
10366;BME280;5229;41.820;23.490;2023-02-16T05:08:28;90898.63;;;0.47;57.78
10366;BME280;5229;41.820;23.490;2023-02-16T05:10:56;90899.38;;;0.48;57.32
10366;BME280;5229;41.820;23.490;2023-02-16T05:13:40;90896.84;;;0.48;57.54
10366;BME280;5229;41.820;23.490;2023-02-16T05:16:25;90905.06;;;0.50;57.38
10366;BME280;5229;41.820;23.490;2023-02-16T05:18:52;90904.41;;;0.54;57.45
10366;BME280;5229;41.820;23.490;2023-02-16T05:21:18;90903.16;;;0.57;57.38
10366;BME280;5229;41.820;23.490;2023-02-16T05:23:57;90907.25;;;0.58;57.18
10366;BME280;5229;41.820;23.490;2023-02-16T05:26:27;90916.59;;;0.52;56.93
10366;BME280;5229;41.820;23.490;2023-02-16T05:28:54;90915.16;;;0.45;57.04
10366;BME280;5229;41.820;23.490;2023-02-16T05:31:21;90908.91;;;0.41;57.23
10366;BME280;5229;41.820;23.490;2023-02-16T05:33:48;90912.03;;;0.43;57.14
10366;BME280;5229;41.820;23.490;2023-02-16T05:36:15;90911.81;;;0.44;57.35
10366;BME280;5229;41.820;23.490;2023-02-16T05:38:42;90918.16;;;0.42;57.35
10366;BME280;5229;41.820;23.490;2023-02-16T05:41:09;90924.22;;;0.41;57.38
10366;BME280;5229;41.820;23.490;2023-02-16T05:43:37;90924.22;;;0.41;57.40
10366;BME280;5229;41.820;23.490;2023-02-16T05:46:06;90936.75;;;0.42;57.28
10366;BME280;5229;41.820;23.490;2023-02-16T05:48:33;90926.69;;;0.47;57.46
10366;BME280;5229;41.820;23.490;2023-02-16T05:51:00;90926.56;;;0.54;57.55
10366;BME280;5229;41.820;23.490;2023-02-16T05:53:27;90927.22;;;0.61;57.40
10366;BME280;5229;41.820;23.490;2023-02-16T05:55:53;90924.16;;;0.59;56.76
10366;BME280;5229;41.820;23.490;2023-02-16T05:58:20;90922.13;;;0.61;57.39
10366;BME280;5229;41.820;23.490;2023-02-16T06:00:48;90929.00;;;0.60;57.45
10366;BME280;5229;41.820;23.490;2023-02-16T06:03:15;90929.34;;;0.64;57.23
10366;BME280;5229;41.820;23.490;2023-02-16T06:05:43;90933.22;;;0.66;57.54
10366;BME280;5229;41.820;23.490;2023-02-16T06:08:10;90939.22;;;0.72;57.13
10366;BME280;5229;41.820;23.490;2023-02-16T06:10:37;90943.53;;;0.83;57.25
10366;BME280;5229;41.820;23.490;2023-02-16T06:13:04;90943.53;;;1.17;57.03
10366;BME280;5229;41.820;23.490;2023-02-16T06:15:31;90938.97;;;2.15;55.94
10366;BME280;5229;41.820;23.490;2023-02-16T06:17:59;90944.09;;;3.57;54.45
10366;BME280;5229;41.820;23.490;2023-02-16T06:20:27;90935.28;;;4.81;51.43
10366;BME280;5229;41.820;23.490;2023-02-16T06:22:54;90942.00;;;5.80;50.18
10366;BME280;5229;41.820;23.490;2023-02-16T06:25:21;90940.44;;;6.56;48.10
10366;BME280;5229;41.820;23.490;2023-02-16T06:27:47;90945.34;;;7.22;47.99
10366;BME280;5229;41.820;23.490;2023-02-16T06:30:15;90950.19;;;8.27;46.18
10366;BME280;5229;41.820;23.490;2023-02-16T06:32:42;90946.28;;;9.46;44.15
10366;BME280;5229;41.820;23.490;2023-02-16T06:35:10;90948.38;;;10.19;42.73
10366;BME280;5229;41.820;23.490;2023-02-16T06:37:36;90957.31;;;10.50;42.60
10366;BME280;5229;41.820;23.490;2023-02-16T06:40:04;90959.16;;;10.68;41.76
10366;BME280;5229;41.820;23.490;2023-02-16T06:42:31;90973.94;;;11.05;41.06
10366;BME280;5229;41.820;23.490;2023-02-16T06:44:58;90956.47;;;11.61;40.82
10366;BME280;5229;41.820;23.490;2023-02-16T06:47:25;90975.31;;;12.53;39.29
10366;BME280;5229;41.820;23.490;2023-02-16T06:49:51;90977.16;;;13.37;38.01
10366;BME280;5229;41.820;23.490;2023-02-16T06:52:19;90974.06;;;14.40;36.60
10366;BME280;5229;41.820;23.490;2023-02-16T06:54:46;90976.59;;;15.61;34.58
10366;BME280;5229;41.820;23.490;2023-02-16T06:57:13;90983.44;;;16.91;32.90
10366;BME280;5229;41.820;23.490;2023-02-16T06:59:40;90981.34;;;18.08;31.79
10366;BME280;5229;41.820;23.490;2023-02-16T07:02:08;90969.84;;;18.81;30.40
10366;BME280;5229;41.820;23.490;2023-02-16T07:04:35;90973.19;;;19.54;29.40
10366;BME280;5229;41.820;23.490;2023-02-16T07:07:02;90978.75;;;20.32;28.14
10366;BME280;5229;41.820;23.490;2023-02-16T07:09:30;90985.44;;;21.03;27.30
10366;BME280;5229;41.820;23.490;2023-02-16T07:11:57;90997.31;;;21.44;26.67
10366;BME280;5229;41.820;23.490;2023-02-16T07:14:24;90994.19;;;21.73;26.33
10366;BME280;5229;41.820;23.490;2023-02-16T07:16:51;91003.88;;;21.84;26.38
10366;BME280;5229;41.820;23.490;2023-02-16T07:19:18;91003.78;;;21.65;26.09
10366;BME280;5229;41.820;23.490;2023-02-16T07:21:44;91003.81;;;21.15;26.41
10366;BME280;5229;41.820;23.490;2023-02-16T07:24:11;91000.91;;;20.89;26.41
10366;BME280;5229;41.820;23.490;2023-02-16T07:26:39;90996.16;;;20.79;26.58
10366;BME280;5229;41.820;23.490;2023-02-16T07:29:06;90993.41;;;20.91;25.94
10366;BME280;5229;41.820;23.490;2023-02-16T07:31:33;90991.97;;;20.78;25.95
10366;BME280;5229;41.820;23.490;2023-02-16T07:33:59;90996.22;;;20.83;25.67
10366;BME280;5229;41.820;23.490;2023-02-16T07:36:26;90998.81;;;20.95;25.51
10366;BME280;5229;41.820;23.490;2023-02-16T07:38:53;90996.75;;;21.04;25.56
10366;BME280;5229;41.820;23.490;2023-02-16T07:41:20;90993.28;;;21.00;25.19
10366;BME280;5229;41.820;23.490;2023-02-16T07:43:48;90989.00;;;21.11;24.86
10366;BME280;5229;41.820;23.490;2023-02-16T07:46:15;90989.56;;;21.35;24.26
10366;BME280;5229;41.820;23.490;2023-02-16T07:48:42;90998.25;;;21.20;24.24
10366;BME280;5229;41.820;23.490;2023-02-16T07:51:08;90992.22;;;20.73;25.02
10366;BME280;5229;41.820;23.490;2023-02-16T07:53:35;90990.03;;;19.77;25.34
10366;BME280;5229;41.820;23.490;2023-02-16T07:56:02;90984.66;;;18.98;26.51
10366;BME280;5229;41.820;23.490;2023-02-16T07:58:29;90989.56;;;18.19;27.01
10366;BME280;5229;41.820;23.490;2023-02-16T08:01:06;90989.38;;;17.29;27.76
10366;BME280;5229;41.820;23.490;2023-02-16T08:03:33;90991.81;;;17.05;28.27
10366;BME280;5229;41.820;23.490;2023-02-16T08:06:00;90986.31;;;16.98;28.26
10366;BME280;5229;41.820;23.490;2023-02-16T08:08:27;90989.84;;;17.02;28.77
10366;BME280;5229;41.820;23.490;2023-02-16T08:10:53;90979.56;;;17.38;27.89
10366;BME280;5229;41.820;23.490;2023-02-16T08:13:20;90982.66;;;17.61;27.77
10366;BME280;5229;41.820;23.490;2023-02-16T08:15:47;90984.41;;;17.78;28.02
10366;BME280;5229;41.820;23.490;2023-02-16T08:18:15;90982.41;;;17.75;28.00
10366;BME280;5229;41.820;23.490;2023-02-16T08:20:42;90992.41;;;17.61;28.35
10366;BME280;5229;41.820;23.490;2023-02-16T08:23:09;90992.53;;;17.64;28.03
10366;BME280;5229;41.820;23.490;2023-02-16T08:25:36;90988.09;;;17.35;28.08
10366;BME280;5229;41.820;23.490;2023-02-16T08:28:03;90987.53;;;17.01;28.95
10366;BME280;5229;41.820;23.490;2023-02-16T08:30:31;90992.16;;;17.04;29.04
10366;BME280;5229;41.820;23.490;2023-02-16T08:32:58;90988.88;;;16.86;28.66
10366;BME280;5229;41.820;23.490;2023-02-16T08:35:27;90987.50;;;16.43;29.37
10366;BME280;5229;41.820;23.490;2023-02-16T08:37:57;90979.84;;;16.29;29.14
10366;BME280;5229;41.820;23.490;2023-02-16T08:40:23;90978.47;;;16.15;29.50
10366;BME280;5229;41.820;23.490;2023-02-16T08:42:51;90978.56;;;16.44;29.45
10366;BME280;5229;41.820;23.490;2023-02-16T08:45:18;90983.59;;;16.95;28.49
10366;BME280;5229;41.820;23.490;2023-02-16T08:47:46;90989.78;;;17.11;28.57
10366;BME280;5229;41.820;23.490;2023-02-16T08:50:13;90982.41;;;17.54;28.36
10366;BME280;5229;41.820;23.490;2023-02-16T08:52:42;90980.53;;;17.96;27.42
10366;BME280;5229;41.820;23.490;2023-02-16T08:55:10;90982.84;;;17.77;27.44
10366;BME280;5229;41.820;23.490;2023-02-16T08:57:36;90983.16;;;17.42;27.75
10366;BME280;5229;41.820;23.490;2023-02-16T09:00:04;90984.47;;;16.99;28.26
10366;BME280;5229;41.820;23.490;2023-02-16T09:02:49;90985.13;;;17.16;28.71
10366;BME280;5229;41.820;23.490;2023-02-16T09:05:16;90989.66;;;17.78;27.92
10366;BME280;5229;41.820;23.490;2023-02-16T09:07:44;90988.28;;;18.25;27.24
10366;BME280;5229;41.820;23.490;2023-02-16T09:10:11;90981.53;;;18.36;27.11
10366;BME280;5229;41.820;23.490;2023-02-16T09:12:38;90986.63;;;18.65;27.03
10366;BME280;5229;41.820;23.490;2023-02-16T09:15:05;90985.94;;;19.40;26.40
10366;BME280;5229;41.820;23.490;2023-02-16T09:17:32;90994.81;;;20.42;25.62
10366;BME280;5229;41.820;23.490;2023-02-16T09:20:00;90991.94;;;21.40;24.60
10366;BME280;5229;41.820;23.490;2023-02-16T09:22:27;90990.09;;;22.13;23.81
10366;BME280;5229;41.820;23.490;2023-02-16T09:24:55;90988.50;;;22.92;23.25
10366;BME280;5229;41.820;23.490;2023-02-16T09:27:22;90994.00;;;23.77;22.57
10366;BME280;5229;41.820;23.490;2023-02-16T09:30:07;90985.81;;;24.52;21.85
10366;BME280;5229;41.820;23.490;2023-02-16T09:32:35;90994.78;;;25.13;21.46
10366;BME280;5229;41.820;23.490;2023-02-16T09:35:02;90995.97;;;25.67;21.05
10366;BME280;5229;41.820;23.490;2023-02-16T09:37:30;90996.63;;;26.14;20.33
10366;BME280;5229;41.820;23.490;2023-02-16T09:39:59;90990.38;;;26.61;19.63
10366;BME280;5229;41.820;23.490;2023-02-16T09:42:32;90996.56;;;27.14;19.56
10366;BME280;5229;41.820;23.490;2023-02-16T09:45:04;90988.25;;;27.50;19.22
10366;BME280;5229;41.820;23.490;2023-02-16T09:47:36;90995.44;;;27.64;18.83
10366;BME280;5229;41.820;23.490;2023-02-16T09:50:11;90988.19;;;27.71;18.78
10366;BME280;5229;41.820;23.490;2023-02-16T09:52:48;90992.41;;;27.93;18.71
10366;BME280;5229;41.820;23.490;2023-02-16T09:55:18;90989.28;;;28.13;18.44
10366;BME280;5229;41.820;23.490;2023-02-16T09:58:04;90985.78;;;28.37;18.40
10366;BME280;5229;41.820;23.490;2023-02-16T10:00:43;90978.09;;;28.53;17.95
10366;BME280;5229;41.820;23.490;2023-02-16T10:03:31;90981.47;;;28.71;17.63
10366;BME280;5229;41.820;23.490;2023-02-16T10:06:08;90978.63;;;28.99;17.81
10366;BME280;5229;41.820;23.490;2023-02-16T10:08:48;90980.03;;;29.21;17.37
10366;BME280;5229;41.820;23.490;2023-02-16T10:11:23;90975.28;;;29.46;17.45
10366;BME280;5229;41.820;23.490;2023-02-16T10:14:16;90975.31;;;29.39;16.63
10366;BME280;5229;41.820;23.490;2023-02-16T10:16:50;90973.66;;;29.52;16.92
10366;BME280;5229;41.820;23.490;2023-02-16T10:19:19;90973.66;;;29.52;16.36
10366;BME280;5229;41.820;23.490;2023-02-16T10:21:51;90966.41;;;29.52;16.74
10366;BME280;5229;41.820;23.490;2023-02-16T10:24:19;90964.03;;;29.65;16.68
10366;BME280;5229;41.820;23.490;2023-02-16T10:26:50;90971.22;;;29.71;16.09
10366;BME280;5229;41.820;23.490;2023-02-16T10:29:21;90955.47;;;29.84;16.51
10366;BME280;5229;41.820;23.490;2023-02-16T10:31:56;90954.63;;;29.90;15.58
10366;BME280;5229;41.820;23.490;2023-02-16T10:34:36;90956.84;;;29.99;15.74
10366;BME280;5229;41.820;23.490;2023-02-16T10:37:18;90953.38;;;30.02;15.57
10366;BME280;5229;41.820;23.490;2023-02-16T10:39:50;90952.03;;;29.83;15.81
10366;BME280;5229;41.820;23.490;2023-02-16T10:42:28;90954.88;;;29.59;15.37
10366;BME280;5229;41.820;23.490;2023-02-16T10:45:05;90953.91;;;29.42;15.79
10366;BME280;5229;41.820;23.490;2023-02-16T10:47:42;90946.38;;;29.27;15.76
10366;BME280;5229;41.820;23.490;2023-02-16T10:50:17;90941.19;;;29.06;15.88
10366;BME280;5229;41.820;23.490;2023-02-16T10:52:46;90937.44;;;28.93;15.68
10366;BME280;5229;41.820;23.490;2023-02-16T10:55:13;90939.00;;;28.87;15.33
10366;BME280;5229;41.820;23.490;2023-02-16T10:57:42;90932.44;;;28.30;15.59
10366;BME280;5229;41.820;23.490;2023-02-16T11:00:18;90930.34;;;26.98;16.22
10366;BME280;5229;41.820;23.490;2023-02-16T11:02:49;90926.06;;;25.59;16.78
10366;BME280;5229;41.820;23.490;2023-02-16T11:05:34;90920.38;;;24.26;17.81
10366;BME280;5229;41.820;23.490;2023-02-16T11:08:03;90919.03;;;23.21;18.73
10366;BME280;5229;41.820;23.490;2023-02-16T11:10:37;90914.34;;;22.21;19.73
10366;BME280;5229;41.820;23.490;2023-02-16T11:13:06;90910.91;;;21.41;20.00
10366;BME280;5229;41.820;23.490;2023-02-16T11:15:36;90906.34;;;20.72;20.55
10366;BME280;5229;41.820;23.490;2023-02-16T11:18:06;90898.84;;;20.12;21.15
10366;BME280;5229;41.820;23.490;2023-02-16T11:20:50;90900.03;;;19.59;21.37
10366;BME280;5229;41.820;23.490;2023-02-16T11:23:22;90899.41;;;19.11;21.92
10366;BME280;5229;41.820;23.490;2023-02-16T11:25:57;90895.09;;;18.67;22.10
10366;BME280;5229;41.820;23.490;2023-02-16T11:28:29;90891.00;;;18.33;22.67
10366;BME280;5229;41.820;23.490;2023-02-16T11:31:04;90884.72;;;18.02;22.68
10366;BME280;5229;41.820;23.490;2023-02-16T11:33:37;90879.22;;;17.71;23.30
10366;BME280;5229;41.820;23.490;2023-02-16T11:36:17;90874.56;;;17.35;23.86
10366;BME280;5229;41.820;23.490;2023-02-16T11:38:55;90875.16;;;16.99;23.66
10366;BME280;5229;41.820;23.490;2023-02-16T11:41:24;90873.19;;;16.76;23.82
10366;BME280;5229;41.820;23.490;2023-02-16T11:43:54;90866.84;;;16.56;24.17
10366;BME280;5229;41.820;23.490;2023-02-16T11:46:22;90866.59;;;16.41;24.90
10366;BME280;5229;41.820;23.490;2023-02-16T11:48:50;90870.06;;;16.24;24.46
10366;BME280;5229;41.820;23.490;2023-02-16T11:51:30;90866.19;;;16.01;24.76
10366;BME280;5229;41.820;23.490;2023-02-16T11:54:02;90868.59;;;15.69;24.90
10366;BME280;5229;41.820;23.490;2023-02-16T11:56:31;90862.97;;;15.24;25.17
10366;BME280;5229;41.820;23.490;2023-02-16T11:59:14;90855.31;;;14.94;25.50
10366;BME280;5229;41.820;23.490;2023-02-16T12:02:08;90848.56;;;14.84;25.71
10366;BME280;5229;41.820;23.490;2023-02-16T12:05:02;90846.38;;;14.69;25.81
10366;BME280;5229;41.820;23.490;2023-02-16T12:07:38;90850.25;;;14.63;25.91
10366;BME280;5229;41.820;23.490;2023-02-16T12:10:09;90842.41;;;14.54;26.04
10366;BME280;5229;41.820;23.490;2023-02-16T12:12:41;90839.91;;;14.41;26.16
10366;BME280;5229;41.820;23.490;2023-02-16T12:15:17;90838.66;;;14.30;25.88
10366;BME280;5229;41.820;23.490;2023-02-16T12:18:11;90837.69;;;14.09;26.51
10366;BME280;5229;41.820;23.490;2023-02-16T12:20:48;90829.97;;;13.95;26.31
10366;BME280;5229;41.820;23.490;2023-02-16T12:23:32;90831.03;;;13.86;26.23
10366;BME280;5229;41.820;23.490;2023-02-16T12:26:26;90830.22;;;13.77;26.63
10366;BME280;5229;41.820;23.490;2023-02-16T12:29:02;90831.78;;;13.78;26.97
10366;BME280;5229;41.820;23.490;2023-02-16T12:31:47;90824.66;;;13.70;26.63
10366;BME280;5229;41.820;23.490;2023-02-16T12:34:24;90816.22;;;13.64;26.49
10366;BME280;5229;41.820;23.490;2023-02-16T12:37:00;90818.03;;;13.55;26.79
10366;BME280;5229;41.820;23.490;2023-02-16T12:39:33;90813.44;;;13.52;26.89
10366;BME280;5229;41.820;23.490;2023-02-16T12:42:18;90816.00;;;13.44;26.87
10366;BME280;5229;41.820;23.490;2023-02-16T12:44:50;90809.84;;;13.40;27.78
10366;BME280;5229;41.820;23.490;2023-02-16T12:47:24;90800.31;;;13.35;27.17
10366;BME280;5229;41.820;23.490;2023-02-16T12:49:53;90803.34;;;13.29;27.49
10366;BME280;5229;41.820;23.490;2023-02-16T12:52:31;90804.69;;;13.18;27.27
10366;BME280;5229;41.820;23.490;2023-02-16T12:55:09;90802.69;;;13.15;27.52
10366;BME280;5229;41.820;23.490;2023-02-16T12:57:46;90799.59;;;13.13;27.58
10366;BME280;5229;41.820;23.490;2023-02-16T13:00:20;90800.19;;;13.10;28.02
10366;BME280;5229;41.820;23.490;2023-02-16T13:02:55;90802.91;;;13.05;27.71
10366;BME280;5229;41.820;23.490;2023-02-16T13:05:28;90802.44;;;13.03;28.31
10366;BME280;5229;41.820;23.490;2023-02-16T13:08:00;90798.91;;;12.99;28.69
10366;BME280;5229;41.820;23.490;2023-02-16T13:10:35;90806.81;;;12.94;28.24
10366;BME280;5229;41.820;23.490;2023-02-16T13:13:05;90805.69;;;12.86;28.87
10366;BME280;5229;41.820;23.490;2023-02-16T13:15:36;90797.81;;;12.78;28.02
10366;BME280;5229;41.820;23.490;2023-02-16T13:18:11;90796.09;;;12.73;28.62
10366;BME280;5229;41.820;23.490;2023-02-16T13:20:46;90797.66;;;12.74;28.15
10366;BME280;5229;41.820;23.490;2023-02-16T13:23:29;90794.09;;;12.70;28.75
10366;BME280;5229;41.820;23.490;2023-02-16T13:26:22;90794.22;;;12.65;28.04
10366;BME280;5229;41.820;23.490;2023-02-16T13:29:10;90789.28;;;12.64;27.95
10366;BME280;5229;41.820;23.490;2023-02-16T13:31:54;90788.34;;;12.60;28.93
10366;BME280;5229;41.820;23.490;2023-02-16T13:34:44;90790.78;;;12.56;28.92